createdAt,value
2023-12-10T00:01:25.633Z,99860.09
2023-12-10T00:03:52.501Z,99863.22
2023-12-10T00:06:19.239Z,99872.06
2023-12-10T00:08:45.898Z,99868.56
2023-12-10T00:11:13.344Z,99878.94
2023-12-10T00:13:40.111Z,99874.63
2023-12-10T00:16:07.189Z,99879.75
2023-12-10T00:18:34.101Z,99876.50
2023-12-10T00:21:00.903Z,99861.72
2023-12-10T00:23:27.552Z,99864.75
2023-12-10T00:25:54.242Z,99856.13
2023-12-10T00:28:20.811Z,99857.75
2023-12-10T00:30:49.135Z,99854.50
2023-12-10T00:33:17.284Z,99851.59
2023-12-10T00:35:44.106Z,99856.81
2023-12-10T00:38:10.773Z,99849.03
2023-12-10T00:40:37.706Z,99847.41
2023-12-10T00:43:04.720Z,99840.31
2023-12-10T00:45:31.393Z,99836.22
2023-12-10T00:47:58.197Z,99829.25
2023-12-10T00:50:24.838Z,99835.19
2023-12-10T00:52:51.478Z,99824.94
2023-12-10T00:55:18.183Z,99815.63
2023-12-10T00:57:44.803Z,99818.09
2023-12-10T01:00:13.759Z,99812.25
2023-12-10T01:02:40.996Z,99814.81
2023-12-10T01:05:08.394Z,99812.25
2023-12-10T01:07:35.043Z,99814.69
2023-12-10T01:10:01.758Z,99815.41
2023-12-10T01:12:28.969Z,99822.94
2023-12-10T01:14:55.770Z,99821.22
2023-12-10T01:17:22.418Z,99826.34
2023-12-10T01:19:49.459Z,99832.97
2023-12-10T01:22:16.803Z,99826.91
2023-12-10T01:24:44.141Z,99831.09
2023-12-10T01:27:11.838Z,99829.34
2023-12-10T01:29:38.528Z,99821.44
2023-12-10T01:32:05.562Z,99820.84
2023-12-10T01:34:32.408Z,99821.69
2023-12-10T01:36:59.134Z,99812.94
2023-12-10T01:39:26.779Z,99807.13
2023-12-10T01:41:53.416Z,99811.44
2023-12-10T01:44:20.076Z,99814.00
2023-12-10T01:46:47.009Z,99819.00
2023-12-10T01:49:15.019Z,99821.44
2023-12-10T01:51:41.895Z,99815.50
2023-12-10T01:54:10.012Z,99808.28
2023-12-10T01:56:36.684Z,99809.91
2023-12-10T01:59:03.581Z,99813.16
2023-12-10T02:01:30.628Z,99811.63
2023-12-10T02:03:57.621Z,99814.31
2023-12-10T02:06:26.437Z,99813.63
2023-12-10T02:08:53.313Z,99813.41
2023-12-10T02:11:19.952Z,99807.34
2023-12-10T02:13:46.996Z,99803.97
2023-12-10T02:16:13.866Z,99799.91
2023-12-10T02:18:40.560Z,99806.63
2023-12-10T02:21:07.600Z,99802.22
2023-12-10T02:23:48.674Z,99814.09
2023-12-10T02:26:15.611Z,99810.59
2023-12-10T02:28:42.666Z,99808.28
2023-12-10T02:31:09.470Z,99800.22
2023-12-10T02:33:36.381Z,99800.13
2023-12-10T02:36:03.357Z,99797.31
2023-12-10T02:38:29.940Z,99785.44
2023-12-10T02:40:56.637Z,99792.44
2023-12-10T02:43:23.287Z,99781.25
2023-12-10T02:45:50.005Z,99777.31
2023-12-10T02:48:18.843Z,99776.38
2023-12-10T02:50:45.520Z,99783.81
2023-12-10T02:53:12.142Z,99778.59
2023-12-10T02:55:38.728Z,99769.97
2023-12-10T02:58:06.006Z,99778.59
2023-12-10T03:00:33.396Z,99777.88
2023-12-10T03:03:00.507Z,99781.38
2023-12-10T03:05:27.385Z,99788.00
2023-12-10T03:07:54.362Z,99779.63
2023-12-10T03:10:21.402Z,99783.81
2023-12-10T03:12:48.040Z,99780.31
2023-12-10T03:15:14.969Z,99783.56
2023-12-10T03:17:41.840Z,99771.81
2023-12-10T03:20:10.731Z,99771.00
2023-12-10T03:22:37.311Z,99754.47
2023-12-10T03:25:04.808Z,99754.34
2023-12-10T03:27:31.408Z,99755.97
2023-12-10T03:29:58.195Z,99755.16
2023-12-10T03:32:24.881Z,99754.34
2023-12-10T03:34:51.629Z,99753.66
2023-12-10T03:37:18.277Z,99758.78
2023-12-10T03:39:44.914Z,99770.75
2023-12-10T03:42:11.563Z,99770.41
2023-12-10T03:44:38.167Z,99780.75
2023-12-10T03:47:04.771Z,99776.31
2023-12-10T03:49:31.587Z,99780.50
2023-12-10T03:51:58.629Z,99778.78
2023-12-10T03:54:25.547Z,99783.06
2023-12-10T03:56:52.149Z,99787.97
2023-12-10T03:59:18.757Z,99787.13
2023-12-10T04:01:45.407Z,99791.47
2023-12-10T04:04:12.738Z,99793.09
2023-12-10T04:06:43.599Z,99783.53
2023-12-10T04:09:10.779Z,99781.78
2023-12-10T04:11:38.106Z,99788.53
2023-12-10T04:14:08.483Z,99786.78
2023-12-10T04:16:35.048Z,99793.66
2023-12-10T04:19:01.834Z,99796.91
2023-12-10T04:21:28.488Z,99798.66
2023-12-10T04:23:55.065Z,99796.09
2023-12-10T04:26:22.497Z,99798.88
2023-12-10T04:28:49.408Z,99802.16
2023-12-10T04:31:16.271Z,99806.34
2023-12-10T04:33:46.386Z,99801.91
2023-12-10T04:36:13.607Z,99807.16
2023-12-10T04:38:40.627Z,99806.09
2023-12-10T04:41:07.454Z,99805.19
2023-12-10T04:43:34.144Z,99807.84
2023-12-10T04:46:00.910Z,99802.72
2023-12-10T04:48:27.796Z,99799.22
2023-12-10T04:50:54.601Z,99801.34
2023-12-10T04:53:21.246Z,99804.47
2023-12-10T04:55:47.942Z,99809.47
2023-12-10T04:58:14.579Z,99813.91
2023-12-10T05:00:42.184Z,99812.97
2023-12-10T05:03:09.078Z,99814.59
2023-12-10T05:05:36.742Z,99804.59
2023-12-10T05:08:04.021Z,99812.28
2023-12-10T05:10:32.837Z,99815.75
2023-12-10T05:12:59.948Z,99809.59
2023-12-10T05:15:26.838Z,99813.91
2023-12-10T05:17:53.617Z,99818.09
2023-12-10T05:20:20.342Z,99814.72
2023-12-10T05:22:47.538Z,99812.16
2023-12-10T05:25:14.409Z,99823.22
2023-12-10T05:27:41.187Z,99826.56
2023-12-10T05:30:08.160Z,99823.09
2023-12-10T05:32:34.858Z,99825.91
2023-12-10T05:35:01.699Z,99824.94
2023-12-10T05:37:28.277Z,99824.94
2023-12-10T05:39:55.188Z,99827.50
2023-12-10T05:42:21.987Z,99829.41
2023-12-10T05:44:49.689Z,99824.00
2023-12-10T05:47:16.379Z,99821.34
2023-12-10T05:49:43.206Z,99826.56
2023-12-10T05:52:09.918Z,99822.28
2023-12-10T05:54:36.599Z,99825.78
2023-12-10T05:57:03.308Z,99835.75
2023-12-10T05:59:30.150Z,99828.22
2023-12-10T06:01:57.409Z,99833.34
2023-12-10T06:04:24.188Z,99831.59
2023-12-10T06:06:50.946Z,99840.78
2023-12-10T06:09:17.874Z,99835.91
2023-12-10T06:11:44.480Z,99839.28
2023-12-10T06:14:11.028Z,99842.53
2023-12-10T06:16:37.654Z,99851.03
2023-12-10T06:19:04.390Z,99844.16
2023-12-10T06:21:31.540Z,99858.47
2023-12-10T06:23:58.160Z,99861.84
2023-12-10T06:26:24.756Z,99857.75
2023-12-10T06:28:51.432Z,99857.91
2023-12-10T06:31:18.036Z,99867.22
2023-12-10T06:33:46.251Z,99860.69
2023-12-10T06:36:13.024Z,99864.09
2023-12-10T06:38:39.787Z,99864.09
2023-12-10T06:41:07.293Z,99866.66
2023-12-10T06:43:33.946Z,99870.84
2023-12-10T06:46:01.194Z,99876.75
2023-12-10T06:48:28.423Z,99879.31
2023-12-10T06:50:55.225Z,99870.94
2023-12-10T06:53:23.123Z,99879.47
2023-12-10T06:55:50.126Z,99870.84
2023-12-10T06:58:16.757Z,99868.16
2023-12-10T07:00:43.415Z,99874.19
2023-12-10T07:03:10.110Z,99877.47
2023-12-10T07:05:36.751Z,99877.59
2023-12-10T07:08:03.445Z,99872.47
2023-12-10T07:10:30.178Z,99874.19
2023-12-10T07:12:56.838Z,99875.69
2023-12-10T07:15:23.474Z,99875.13
2023-12-10T07:17:50.341Z,99873.50
2023-12-10T07:20:17.175Z,99874.44
2023-12-10T07:22:43.809Z,99876.91
2023-12-10T07:25:10.591Z,99880.25
2023-12-10T07:27:37.280Z,99881.19
2023-12-10T07:30:04.207Z,99886.09
2023-12-10T07:32:31.157Z,99884.59
2023-12-10T07:34:58.012Z,99884.31
2023-12-10T07:37:24.680Z,99892.28
2023-12-10T07:39:51.338Z,99885.38
2023-12-10T07:42:18.039Z,99888.75
2023-12-10T07:44:44.641Z,99893.63
2023-12-10T07:47:13.067Z,99896.44
2023-12-10T07:49:40.474Z,99884.31
2023-12-10T07:52:07.903Z,99895.50
2023-12-10T07:54:34.703Z,99897.13
2023-12-10T07:57:01.316Z,99898.63
2023-12-10T07:59:27.908Z,99890.50
2023-12-10T08:01:55.837Z,99898.06
2023-12-10T08:04:22.617Z,99903.88
2023-12-10T08:06:49.420Z,99895.41
2023-12-10T08:09:16.145Z,99902.03
2023-12-10T08:11:42.752Z,99896.91
2023-12-10T08:14:10.713Z,99903.53
2023-12-10T08:16:38.872Z,99900.16
2023-12-10T08:19:05.924Z,99901.22
2023-12-10T08:21:32.663Z,99907.00
2023-12-10T08:23:59.322Z,99909.47
2023-12-10T08:26:26.069Z,99907.84
2023-12-10T08:28:52.641Z,99908.41
2023-12-10T08:31:19.257Z,99912.75
2023-12-10T08:33:48.156Z,99907.63
2023-12-10T08:36:14.929Z,99903.66
2023-12-10T08:38:41.978Z,99903.28
2023-12-10T08:41:09.767Z,99900.72
2023-12-10T08:43:36.774Z,99905.84
2023-12-10T08:46:03.700Z,99903.16
2023-12-10T08:48:31.779Z,99908.06
2023-12-10T08:50:58.465Z,99911.69
2023-12-10T08:53:25.050Z,99905.72
2023-12-10T08:55:51.648Z,99903.28
2023-12-10T08:58:18.201Z,99909.91
2023-12-10T09:00:45.228Z,99914.94
2023-12-10T09:03:12.334Z,99913.19
2023-12-10T09:05:39.170Z,99910.75
2023-12-10T09:08:07.747Z,99904.56
2023-12-10T09:10:34.649Z,99911.19
2023-12-10T09:13:01.429Z,99901.75
2023-12-10T09:15:28.127Z,99910.94
2023-12-10T09:17:55.081Z,99903.81
2023-12-10T09:20:21.935Z,99903.13
2023-12-10T09:22:48.613Z,99896.41
2023-12-10T09:25:16.081Z,99903.13
2023-12-10T09:27:42.793Z,99907.22
2023-12-10T09:30:10.168Z,99884.03
2023-12-10T09:32:37.122Z,99889.34
2023-12-10T09:35:05.505Z,99883.06
2023-12-10T09:37:32.449Z,99881.06
2023-12-10T09:39:59.318Z,99895.06
2023-12-10T09:42:26.091Z,99894.91
2023-12-10T09:44:52.780Z,99896.63
2023-12-10T09:47:21.227Z,99897.84
2023-12-10T09:49:47.992Z,99897.47
2023-12-10T09:52:14.656Z,99893.03
2023-12-10T09:54:42.547Z,99894.78
2023-12-10T09:57:09.517Z,99881.00
2023-12-10T09:59:37.351Z,99894.53
2023-12-10T10:02:05.564Z,99892.66
2023-12-10T10:04:32.398Z,99887.63
2023-12-10T10:06:59.134Z,99879.94
2023-12-10T10:09:34.754Z,99882.50
2023-12-10T10:12:04.636Z,99884.13
2023-12-10T10:14:31.260Z,99884.84
2023-12-10T10:16:57.951Z,99896.03
2023-12-10T10:19:24.960Z,99902.25
2023-12-10T10:21:51.794Z,99900.75
2023-12-10T10:24:19.805Z,99910.66
2023-12-10T10:26:47.252Z,99913.66
2023-12-10T10:29:14.004Z,99910.88
2023-12-10T10:31:41.431Z,99920.69
2023-12-10T10:34:08.173Z,99913.69
2023-12-10T10:36:34.865Z,99912.53
2023-12-10T10:39:01.570Z,99913.38
2023-12-10T10:41:28.546Z,99914.19
2023-12-10T10:43:57.567Z,99910.78
2023-12-10T10:46:24.829Z,99904.50
2023-12-10T10:48:55.395Z,99904.13
2023-12-10T10:51:25.231Z,99905.38
2023-12-10T10:53:55.348Z,99897.69
2023-12-10T10:56:22.250Z,99894.66
2023-12-10T10:58:48.838Z,99889.06
2023-12-10T11:01:44.979Z,99884.06
2023-12-10T11:04:16.863Z,99894.44
2023-12-10T11:06:47.316Z,99904.19
2023-12-10T11:09:14.097Z,99909.81
2023-12-10T11:11:41.672Z,99915.56
2023-12-10T11:14:22.444Z,99914.31
2023-12-10T11:17:00.547Z,99917.34
2023-12-10T11:19:27.613Z,99922.03
2023-12-10T11:21:54.472Z,99913.88
2023-12-10T11:24:21.115Z,99920.28
2023-12-10T11:26:48.024Z,99920.16
2023-12-10T11:29:14.736Z,99927.63
2023-12-10T11:31:44.090Z,99933.53
2023-12-10T11:34:10.875Z,99930.41
2023-12-10T11:36:38.554Z,99918.44
2023-12-10T11:39:12.971Z,99923.66
2023-12-10T11:41:48.796Z,99921.94
2023-12-10T11:44:23.040Z,99926.56
2023-12-10T11:46:51.375Z,99921.69
2023-12-10T11:49:19.444Z,99923.19
2023-12-10T11:51:46.240Z,99919.78
2023-12-10T11:54:13.445Z,99922.97
2023-12-10T11:56:41.567Z,99914.81
2023-12-10T11:59:12.236Z,99916.31
2023-12-10T12:01:39.513Z,99918.44
2023-12-10T12:04:06.260Z,99911.91
2023-12-10T12:06:41.094Z,99918.31
2023-12-10T12:09:08.475Z,99912.38
2023-12-10T12:11:35.070Z,99910.03
2023-12-10T12:14:02.607Z,99911.53
2023-12-10T12:16:29.259Z,99904.91
2023-12-10T12:18:56.011Z,99909.13
2023-12-10T12:21:22.719Z,99907.25
2023-12-10T12:23:49.370Z,99897.09
2023-12-10T12:26:16.525Z,99906.41
2023-12-10T12:28:46.356Z,99903.38
2023-12-10T12:31:14.462Z,99909.53
2023-12-10T12:33:41.181Z,99910.75
2023-12-10T12:36:08.215Z,99909.56
2023-12-10T12:38:35.140Z,99912.38
2023-12-10T12:41:01.753Z,99911.00
2023-12-10T12:43:28.383Z,99916.00
2023-12-10T12:45:55.007Z,99918.00
2023-12-10T12:48:22.133Z,99916.97
2023-12-10T12:50:48.890Z,99918.22
2023-12-10T12:53:15.473Z,99915.34
2023-12-10T12:55:42.232Z,99912.06
2023-12-10T12:58:08.869Z,99910.09
2023-12-10T13:00:35.654Z,99909.03
2023-12-10T13:03:02.458Z,99908.25
2023-12-10T13:05:29.187Z,99903.34
2023-12-10T13:07:55.885Z,99908.72
2023-12-10T13:10:22.501Z,99910.47
2023-12-10T13:12:49.122Z,99911.63
2023-12-10T13:15:15.820Z,99907.91
2023-12-10T13:17:42.587Z,99903.72
2023-12-10T13:20:09.917Z,99896.41
2023-12-10T13:22:36.503Z,99893.94
2023-12-10T13:25:06.075Z,99897.53
2023-12-10T13:27:33.103Z,99893.25
2023-12-10T13:29:59.948Z,99891.03
2023-12-10T13:32:26.636Z,99882.41
2023-12-10T13:34:53.523Z,99884.97
2023-12-10T13:37:20.153Z,99888.25
2023-12-10T13:39:46.764Z,99889.88
2023-12-10T13:42:13.401Z,99894.50
2023-12-10T13:44:40.003Z,99893.81
2023-12-10T13:47:06.881Z,99885.31
2023-12-10T13:49:34.212Z,99892.06
2023-12-10T13:52:00.946Z,99898.00
2023-12-10T13:54:27.641Z,99904.38
2023-12-10T13:56:54.414Z,99899.16
2023-12-10T13:59:21.005Z,99890.44
2023-12-10T14:01:47.720Z,99887.06
2023-12-10T14:04:14.615Z,99887.66
2023-12-10T14:06:41.405Z,99889.25
2023-12-10T14:09:08.120Z,99884.16
2023-12-10T14:11:40.982Z,99884.16
2023-12-10T14:14:12.755Z,99882.53
2023-12-10T14:16:40.695Z,99888.56
2023-12-10T14:19:07.437Z,99888.41
2023-12-10T14:21:34.206Z,99890.41
2023-12-10T14:24:00.799Z,99884.59
2023-12-10T14:26:27.437Z,99884.47
2023-12-10T14:28:54.788Z,99882.69
2023-12-10T14:31:24.515Z,99881.31
2023-12-10T14:33:52.971Z,99884.09
2023-12-10T14:36:19.687Z,99875.94
2023-12-10T14:38:46.943Z,99875.94
2023-12-10T14:41:13.554Z,99874.31
2023-12-10T14:43:40.187Z,99883.13
2023-12-10T14:46:06.934Z,99874.66
2023-12-10T14:48:33.788Z,99883.13
2023-12-10T14:51:00.633Z,99885.91
2023-12-10T14:53:27.349Z,99887.75
2023-12-10T14:55:54.014Z,99876.84
2023-12-10T14:58:20.596Z,99879.97
2023-12-10T15:00:47.583Z,99877.75
2023-12-10T15:03:15.250Z,99876.84
2023-12-10T15:05:42.008Z,99880.06
2023-12-10T15:08:08.658Z,99876.00
2023-12-10T15:10:35.252Z,99871.03
2023-12-10T15:13:01.896Z,99870.00
2023-12-10T15:15:28.651Z,99864.88
2023-12-10T15:17:57.671Z,99870.88
2023-12-10T15:20:24.316Z,99866.59
2023-12-10T15:22:50.980Z,99870.09
2023-12-10T15:25:17.793Z,99861.38
2023-12-10T15:27:44.594Z,99868.03
2023-12-10T15:30:11.727Z,99869.66
2023-12-10T15:32:38.378Z,99874.75
2023-12-10T15:35:05.406Z,99866.16
2023-12-10T15:37:32.409Z,99860.22
2023-12-10T15:39:59.308Z,99866.84
2023-12-10T15:42:27.653Z,99879.53
2023-12-10T15:44:55.614Z,99884.44
2023-12-10T15:47:23.258Z,99877.78
2023-12-10T15:49:50.027Z,99865.94
2023-12-10T15:52:23.615Z,99863.50
2023-12-10T15:54:57.372Z,99863.25
2023-12-10T15:57:24.237Z,99863.97
2023-12-10T15:59:50.879Z,99859.66
2023-12-10T16:02:18.588Z,99845.16
2023-12-10T16:04:45.281Z,99846.78
2023-12-10T16:07:14.758Z,99847.47
2023-12-10T16:09:43.130Z,99834.81
2023-12-10T16:12:09.775Z,99835.50
2023-12-10T16:14:36.364Z,99825.41
2023-12-10T16:17:04.287Z,99827.84
2023-12-10T16:19:30.968Z,99832.75
2023-12-10T16:21:57.625Z,99834.47
2023-12-10T16:24:24.247Z,99841.31
2023-12-10T16:26:50.925Z,99848.09
2023-12-10T16:29:17.790Z,99847.16
2023-12-10T16:31:44.398Z,99839.47
2023-12-10T16:34:11.357Z,99835.06
2023-12-10T16:36:38.787Z,99837.41
2023-12-10T16:39:05.461Z,99835.53
2023-12-10T16:41:32.081Z,99835.53
2023-12-10T16:43:59.985Z,99824.38
2023-12-10T16:46:26.544Z,99822.63
2023-12-10T16:48:53.715Z,99825.88
2023-12-10T16:51:20.394Z,99819.03
2023-12-10T16:53:46.974Z,99821.25
2023-12-10T16:56:13.636Z,99816.03
2023-12-10T16:58:40.358Z,99818.56
2023-12-10T17:01:07.392Z,99816.03
2023-12-10T17:03:34.472Z,99810.66
2023-12-10T17:06:01.295Z,99798.81
2023-12-10T17:08:27.965Z,99798.44
2023-12-10T17:10:54.720Z,99797.66
2023-12-10T17:13:21.312Z,99796.03
2023-12-10T17:15:48.316Z,99802.66
2023-12-10T17:18:15.201Z,99801.63
2023-12-10T17:20:41.945Z,99799.97
2023-12-10T17:23:09.590Z,99786.28
2023-12-10T17:25:36.226Z,99784.75
2023-12-10T17:28:02.906Z,99770.09
2023-12-10T17:30:29.619Z,99765.66
2023-12-10T17:32:56.387Z,99752.31
2023-12-10T17:35:23.105Z,99747.09
2023-12-10T17:37:49.699Z,99748.50
2023-12-10T17:40:16.668Z,99752.78
2023-12-10T17:42:43.323Z,99750.00
2023-12-10T17:45:10.365Z,99745.78
2023-12-10T17:47:37.030Z,99746.72
2023-12-10T17:50:05.062Z,99740.81
2023-12-10T17:52:31.943Z,99735.69
2023-12-10T17:54:58.679Z,99734.88
2023-12-10T17:57:25.466Z,99743.47
2023-12-10T17:59:52.136Z,99742.31
2023-12-10T18:02:19.013Z,99738.94
2023-12-10T18:04:46.595Z,99737.31
2023-12-10T18:07:13.474Z,99731.25
2023-12-10T18:09:40.295Z,99729.28
2023-12-10T18:12:07.946Z,99725.78
2023-12-10T18:14:34.555Z,99730.22
2023-12-10T18:17:01.261Z,99725.94
2023-12-10T18:19:28.485Z,99721.50
2023-12-10T18:21:55.350Z,99728.47
2023-12-10T18:24:21.966Z,99726.03
2023-12-10T18:26:48.995Z,99728.34
2023-12-10T18:29:15.601Z,99730.91
2023-12-10T18:31:42.283Z,99723.00
2023-12-10T18:34:09.085Z,99701.59
2023-12-10T18:36:35.711Z,99689.97
2023-12-10T18:39:02.426Z,99690.81
2023-12-10T18:41:29.137Z,99693.13
2023-12-10T18:43:55.791Z,99693.94
2023-12-10T18:46:22.468Z,99704.16
2023-12-10T18:48:49.275Z,99705.94
2023-12-10T18:51:15.923Z,99707.66
2023-12-10T18:53:42.562Z,99703.22
2023-12-10T18:56:09.616Z,99699.97
2023-12-10T18:58:36.326Z,99692.19
2023-12-10T19:01:03.028Z,99702.44
2023-12-10T19:03:30.270Z,99701.84
2023-12-10T19:05:57.782Z,99708.72
2023-12-10T19:08:24.460Z,99689.75
2023-12-10T19:10:51.285Z,99689.88
2023-12-10T19:13:18.116Z,99688.81
2023-12-10T19:15:50.056Z,99686.25
2023-12-10T19:18:17.270Z,99688.81
2023-12-10T19:20:43.915Z,99681.13
2023-12-10T19:23:10.543Z,99681.81
2023-12-10T19:25:37.173Z,99676.84
2023-12-10T19:28:03.873Z,99671.72
2023-12-10T19:30:30.578Z,99677.53
2023-12-10T19:32:57.313Z,99668.91
2023-12-10T19:35:24.087Z,99662.19
2023-12-10T19:37:50.715Z,99665.56
2023-12-10T19:40:17.537Z,99659.72
2023-12-10T19:42:44.138Z,99670.13
2023-12-10T19:45:11.327Z,99665.91
2023-12-10T19:47:38.011Z,99673.34
2023-12-10T19:50:07.171Z,99672.66
2023-12-10T19:52:34.926Z,99673.47
2023-12-10T19:55:03.869Z,99667.56
2023-12-10T19:57:30.940Z,99663.22
2023-12-10T19:59:57.730Z,99657.06
2023-12-10T20:02:24.398Z,99640.78
2023-12-10T20:04:51.426Z,99633.22
2023-12-10T20:07:18.152Z,99625.81
2023-12-10T20:09:44.780Z,99610.56
2023-12-10T20:12:12.037Z,99606.00
2023-12-10T20:14:38.693Z,99598.59
2023-12-10T20:17:05.484Z,99596.03
2023-12-10T20:19:32.861Z,99590.09
2023-12-10T20:21:59.579Z,99586.88
2023-12-10T20:24:34.615Z,99577.69
2023-12-10T20:27:03.720Z,99576.97
2023-12-10T20:29:30.312Z,99573.38
2023-12-10T20:31:57.106Z,99564.78
2023-12-10T20:34:30.162Z,99580.81
2023-12-10T20:37:01.745Z,99566.16
2023-12-10T20:39:28.432Z,99559.28
2023-12-10T20:41:55.064Z,99553.34
2023-12-10T20:44:21.654Z,99549.06
2023-12-10T20:46:48.345Z,99540.56
2023-12-10T20:49:15.156Z,99536.16
2023-12-10T20:51:42.303Z,99530.22
2023-12-10T20:54:09.649Z,99526.88
2023-12-10T20:56:36.987Z,99526.72
2023-12-10T20:59:03.617Z,99521.47
2023-12-10T21:01:30.469Z,99520.19
2023-12-10T21:03:57.255Z,99515.75
2023-12-10T21:06:25.287Z,99519.94
2023-12-10T21:08:52.121Z,99517.25
2023-12-10T21:11:18.765Z,99522.25
2023-12-10T21:13:45.437Z,99521.31
2023-12-10T21:16:12.221Z,99517.81
2023-12-10T21:18:39.026Z,99507.56
2023-12-10T21:21:06.431Z,99502.34
2023-12-10T21:23:37.786Z,99498.16
2023-12-10T21:26:07.730Z,99491.03
2023-12-10T21:28:34.890Z,99492.91
2023-12-10T21:31:01.567Z,99487.09
2023-12-10T21:33:28.329Z,99485.38
2023-12-10T21:35:55.230Z,99479.19
2023-12-10T21:38:23.330Z,99473.91
2023-12-10T21:40:51.171Z,99462.91
2023-12-10T21:43:17.784Z,99464.75
2023-12-10T21:45:44.484Z,99458.56
2023-12-10T21:48:11.201Z,99459.28
2023-12-10T21:50:37.858Z,99450.78
2023-12-10T21:53:04.476Z,99449.94
2023-12-10T21:55:31.109Z,99442.97
2023-12-10T21:57:58.242Z,99432.88
2023-12-10T22:00:24.883Z,99431.91
2023-12-10T22:02:51.715Z,99426.69
2023-12-10T22:05:18.352Z,99430.06
2023-12-10T22:07:44.976Z,99430.84
2023-12-10T22:10:13.220Z,99433.53
2023-12-10T22:12:40.358Z,99429.25
2023-12-10T22:15:07.681Z,99417.13
2023-12-10T22:17:34.630Z,99418.88
2023-12-10T22:20:01.495Z,99415.09
2023-12-10T22:22:28.624Z,99418.59
2023-12-10T22:24:56.714Z,99399.63
2023-12-10T22:27:23.461Z,99397.06
2023-12-10T22:29:50.553Z,99395.34
2023-12-10T22:32:17.284Z,99391.16
2023-12-10T22:34:44.081Z,99390.22
2023-12-10T22:37:11.040Z,99398.56
2023-12-10T22:39:37.673Z,99392.38
2023-12-10T22:42:04.532Z,99381.19
2023-12-10T22:44:31.160Z,99381.34
2023-12-10T22:46:57.762Z,99374.47
2023-12-10T22:49:25.142Z,99372.84
2023-12-10T22:51:52.017Z,99372.97
2023-12-10T22:54:18.774Z,99376.06
2023-12-10T22:56:45.419Z,99375.16
2023-12-10T22:59:12.116Z,99367.34
2023-12-10T23:01:39.231Z,99366.38
2023-12-10T23:04:06.423Z,99362.09
2023-12-10T23:06:33.162Z,99356.84
2023-12-10T23:09:00.908Z,99351.72
2023-12-10T23:11:27.582Z,99357.50
2023-12-10T23:13:54.165Z,99352.94
2023-12-10T23:16:20.716Z,99350.66
2023-12-10T23:18:47.375Z,99350.66
2023-12-10T23:21:14.067Z,99351.19
2023-12-10T23:23:40.883Z,99353.63
2023-12-10T23:26:07.650Z,99349.31
2023-12-10T23:28:34.418Z,99346.75
2023-12-10T23:31:01.080Z,99345.81
2023-12-10T23:33:27.913Z,99340.69
2023-12-10T23:35:54.749Z,99337.34
2023-12-10T23:38:21.335Z,99335.56
2023-12-10T23:40:47.937Z,99329.53
2023-12-10T23:43:14.638Z,99329.38
2023-12-10T23:45:41.469Z,99322.63
2023-12-10T23:48:08.227Z,99322.25
2023-12-10T23:50:34.878Z,99318.75
2023-12-10T23:53:01.452Z,99317.94
2023-12-10T23:55:28.184Z,99307.81
2023-12-10T23:57:55.231Z,99314.59
